Tampa International Airport
KTPA : now visible

Airfield :











YOU CAN JOIN US ON...

 
LOGIN :

Register | Disclaimer

   EN    FR    IT 

 









Legend :    VFR   Marginal VFR   IFR   Intensive IFR   Very Intensive IFR
Visi :
Ceiling :
>= 8 km
>= 3000ft
5 to 8 km
1000 to 3000 ft
1500m to 5 km
500 to 1000 ft
800 to 1500m
200 to 500 ft
< 800m
< 200 ft
Symbols :   Thunderstorms  Fog  Heavy snow  Heavy precipitations  Wind > 20 kt






- Airport Elevation : 26 ft
- IATA code : TPA


KTPA - Tampa International

CURRENT METAR :
  • 030753Z 31003KT 10SM CLR 26/22 A2987 RMK AO2 SLP115 T02560217 $

EXPIRED METARs :
  • 030653Z 00000KT 10SM CLR 26/21 A2989 RMK AO2 SLP120 T02610211 $
  • 030553Z 35004KT 10SM CLR 27/21 A2990 RMK AO2 SLP124 T02670211 10311 20261 50001 $

TAF KTPA
Valid from the 03 at 06:00 until the 04 at 12:00 UTC


030530Z 0306/0412 35007KT P6SM SCT030 BKN250
FM030900 32007KT P6SM FEW020 SCT080 BKN250
FM031200 29008KT P6SM FEW015 SCT050 BKN250
FM031800 28010KT P6SM VCTS SCT025CB BKN250
FM040000 29004KT P6SM FEW030 SCT250
KZJX FIR / North America



MET'MAP, your aeronautical weather chart ! - Copyright ORBIFLY December 2007 - Disclaimer

ORBIFLY MET'MAP TEAM :

Programming & Development : Alexandra Zaïnal
Concept & original design : Baudouin d'Aumeries
Assistance for programming : Marc-Olivier Méhu
Technical & hardware support : Manuel Goepfert

Contact : metmap@orbifly.com




SOURCES & CREDITS :

   NOAA       Earth
Advisory